<?xml version="1.0" encoding="UTF-8" standalone="no" ?>
<gpx xmlns="http://www.topografix.com/GPX/1/1" xmlns:xsi="http://www.w3.org/2001/XMLSchema-instance" xsi:schemaLocation="http://www.topografix.com/GPX/1/1 http://www.topografix.com/GPX/1/1/gpx.xsd" version="1.1" creator="VisuGPX - https://www.visugpx.com">
  <metadata>
    <name>VacancesDricouZoe</name>
  </metadata>
  <trk>
    <name><![CDATA[Journal actif: 2021-07-01 17:24]]></name>
    <trkseg>
      <trkpt lat="44.65693" lon="-1.16756">
        <ele>19.84</ele>
        <time>2021-07-01T19:24:59Z</time>
      </trkpt>
      <trkpt lat="44.65693" lon="-1.16684">
        <ele>16</ele>
        <time>2021-07-01T19:25:13Z</time>
      </trkpt>
      <trkpt lat="44.65687" lon="-1.16622">
        <ele>11.67</ele>
        <time>2021-07-01T19:25:23Z</time>
      </trkpt>
      <trkpt lat="44.65681" lon="-1.1656">
        <ele>9.27</ele>
        <time>2021-07-01T19:25:32Z</time>
      </trkpt>
      <trkpt lat="44.6568" lon="-1.16554">
        <ele>9.27</ele>
        <time>2021-07-01T19:25:33Z</time>
      </trkpt>
      <trkpt lat="44.6568" lon="-1.16548">
        <ele>9.27</ele>
        <time>2021-07-01T19:25:34Z</time>
      </trkpt>
      <trkpt lat="44.65679" lon="-1.16542">
        <ele>8.79</ele>
        <time>2021-07-01T19:25:35Z</time>
      </trkpt>
      <trkpt lat="44.65678" lon="-1.16536">
        <ele>8.79</ele>
        <time>2021-07-01T19:25:36Z</time>
      </trkpt>
      <trkpt lat="44.65665" lon="-1.16462">
        <ele>4.94</ele>
        <time>2021-07-01T19:25:48Z</time>
      </trkpt>
      <trkpt lat="44.65661" lon="-1.1644">
        <ele>4.94</ele>
        <time>2021-07-01T19:25:54Z</time>
      </trkpt>
      <trkpt lat="44.65663" lon="-1.1644">
        <ele>5.42</ele>
        <time>2021-07-01T19:25:55Z</time>
      </trkpt>
      <trkpt lat="44.65665" lon="-1.16438">
        <ele>5.42</ele>
        <time>2021-07-01T19:25:56Z</time>
      </trkpt>
      <trkpt lat="44.65666" lon="-1.16436">
        <ele>5.42</ele>
        <time>2021-07-01T19:25:57Z</time>
      </trkpt>
      <trkpt lat="44.65668" lon="-1.16434">
        <ele>5.42</ele>
        <time>2021-07-01T19:25:58Z</time>
      </trkpt>
      <trkpt lat="44.65668" lon="-1.16435">
        <ele>5.42</ele>
        <time>2021-07-01T19:25:59Z</time>
      </trkpt>
      <trkpt lat="44.6567" lon="-1.1644">
        <ele>5.42</ele>
        <time>2021-07-01T19:26:00Z</time>
      </trkpt>
      <trkpt lat="44.65672" lon="-1.16445">
        <ele>5.42</ele>
        <time>2021-07-01T19:26:01Z</time>
      </trkpt>
      <trkpt lat="44.65676" lon="-1.16457">
        <ele>5.42</ele>
        <time>2021-07-01T19:26:02Z</time>
      </trkpt>
      <trkpt lat="44.65676" lon="-1.16457">
        <ele>4.94</ele>
        <time>2021-07-01T19:26:03Z</time>
      </trkpt>
      <trkpt lat="44.65686" lon="-1.16487">
        <ele>3.5</ele>
        <time>2021-07-01T19:26:08Z</time>
      </trkpt>
      <trkpt lat="44.65741" lon="-1.16583">
        <ele>-1.3</ele>
        <time>2021-07-01T19:26:24Z</time>
      </trkpt>
      <trkpt lat="44.65791" lon="-1.16648">
        <ele>0.62</ele>
        <time>2021-07-01T19:26:35Z</time>
      </trkpt>
      <trkpt lat="44.65794" lon="-1.16657">
        <ele>1.1</ele>
        <time>2021-07-01T19:26:36Z</time>
      </trkpt>
      <trkpt lat="44.65796" lon="-1.16667">
        <ele>1.1</ele>
        <time>2021-07-01T19:26:37Z</time>
      </trkpt>
      <trkpt lat="44.65822" lon="-1.16783">
        <ele>4.94</ele>
        <time>2021-07-01T19:26:49Z</time>
      </trkpt>
      <trkpt lat="44.65825" lon="-1.16789">
        <ele>4.94</ele>
        <time>2021-07-01T19:26:50Z</time>
      </trkpt>
      <trkpt lat="44.65835" lon="-1.16811">
        <ele>4.94</ele>
        <time>2021-07-01T19:26:59Z</time>
      </trkpt>
      <trkpt lat="44.65835" lon="-1.16811">
        <ele>4.94</ele>
        <time>2021-07-01T19:27:00Z</time>
      </trkpt>
      <trkpt lat="44.65836" lon="-1.16813">
        <ele>5.42</ele>
        <time>2021-07-01T19:27:01Z</time>
      </trkpt>
      <trkpt lat="44.65823" lon="-1.1682">
        <ele>5.91</ele>
        <time>2021-07-01T19:27:03Z</time>
      </trkpt>
      <trkpt lat="44.65817" lon="-1.1682">
        <ele>6.39</ele>
        <time>2021-07-01T19:27:04Z</time>
      </trkpt>
      <trkpt lat="44.6581" lon="-1.16819">
        <ele>6.87</ele>
        <time>2021-07-01T19:27:05Z</time>
      </trkpt>
      <trkpt lat="44.65716" lon="-1.1681">
        <ele>17.44</ele>
        <time>2021-07-01T19:27:19Z</time>
      </trkpt>
      <trkpt lat="44.6571" lon="-1.16811">
        <ele>17.92</ele>
        <time>2021-07-01T19:27:20Z</time>
      </trkpt>
      <trkpt lat="44.65705" lon="-1.16813">
        <ele>18.4</ele>
        <time>2021-07-01T19:27:21Z</time>
      </trkpt>
      <trkpt lat="44.65691" lon="-1.16824">
        <ele>19.36</ele>
        <time>2021-07-01T19:27:22Z</time>
      </trkpt>
      <trkpt lat="44.65691" lon="-1.16827">
        <ele>19.84</ele>
        <time>2021-07-01T19:27:23Z</time>
      </trkpt>
      <trkpt lat="44.6569" lon="-1.16836">
        <ele>20.81</ele>
        <time>2021-07-01T19:27:24Z</time>
      </trkpt>
      <trkpt lat="44.65689" lon="-1.16846">
        <ele>21.29</ele>
        <time>2021-07-01T19:27:25Z</time>
      </trkpt>
      <trkpt lat="44.65688" lon="-1.16857">
        <ele>21.77</ele>
        <time>2021-07-01T19:27:26Z</time>
      </trkpt>
      <trkpt lat="44.65684" lon="-1.16966">
        <ele>22.25</ele>
        <time>2021-07-01T19:27:38Z</time>
      </trkpt>
      <trkpt lat="44.65683" lon="-1.16975">
        <ele>22.25</ele>
        <time>2021-07-01T19:27:39Z</time>
      </trkpt>
      <trkpt lat="44.65681" lon="-1.1702">
        <ele>22.25</ele>
        <time>2021-07-01T19:27:44Z</time>
      </trkpt>
      <trkpt lat="44.6568" lon="-1.17039">
        <ele>22.73</ele>
        <time>2021-07-01T19:27:46Z</time>
      </trkpt>
      <trkpt lat="44.6568" lon="-1.17059">
        <ele>23.21</ele>
        <time>2021-07-01T19:27:48Z</time>
      </trkpt>
      <trkpt lat="44.65679" lon="-1.17069">
        <ele>23.69</ele>
        <time>2021-07-01T19:27:49Z</time>
      </trkpt>
      <trkpt lat="44.65677" lon="-1.17147">
        <ele>25.61</ele>
        <time>2021-07-01T19:27:59Z</time>
      </trkpt>
      <trkpt lat="44.65687" lon="-1.17197">
        <ele>25.61</ele>
        <time>2021-07-01T19:28:09Z</time>
      </trkpt>
      <trkpt lat="44.6571" lon="-1.17279">
        <ele>19.84</ele>
        <time>2021-07-01T19:28:23Z</time>
      </trkpt>
      <trkpt lat="44.65706" lon="-1.17327">
        <ele>17.92</ele>
        <time>2021-07-01T19:28:34Z</time>
      </trkpt>
      <trkpt lat="44.65705" lon="-1.17338">
        <ele>17.92</ele>
        <time>2021-07-01T19:28:36Z</time>
      </trkpt>
      <trkpt lat="44.65705" lon="-1.17343">
        <ele>17.92</ele>
        <time>2021-07-01T19:28:37Z</time>
      </trkpt>
      <trkpt lat="44.65706" lon="-1.17348">
        <ele>17.92</ele>
        <time>2021-07-01T19:28:38Z</time>
      </trkpt>
      <trkpt lat="44.65706" lon="-1.17354">
        <ele>17.92</ele>
        <time>2021-07-01T19:28:39Z</time>
      </trkpt>
      <trkpt lat="44.65707" lon="-1.1736">
        <ele>17.92</ele>
        <time>2021-07-01T19:28:40Z</time>
      </trkpt>
      <trkpt lat="44.65708" lon="-1.17365">
        <ele>18.4</ele>
        <time>2021-07-01T19:28:41Z</time>
      </trkpt>
      <trkpt lat="44.65709" lon="-1.1737">
        <ele>18.4</ele>
        <time>2021-07-01T19:28:42Z</time>
      </trkpt>
      <trkpt lat="44.65712" lon="-1.17373">
        <ele>18.4</ele>
        <time>2021-07-01T19:28:43Z</time>
      </trkpt>
      <trkpt lat="44.65754" lon="-1.17419">
        <ele>18.4</ele>
        <time>2021-07-01T19:28:59Z</time>
      </trkpt>
      <trkpt lat="44.65767" lon="-1.17425">
        <ele>18.88</ele>
        <time>2021-07-01T19:29:11Z</time>
      </trkpt>
      <trkpt lat="44.65767" lon="-1.17425">
        <ele>19.36</ele>
        <time>2021-07-01T19:29:29Z</time>
      </trkpt>
      <trkpt lat="44.65767" lon="-1.17425">
        <ele>19.36</ele>
        <time>2021-07-01T19:29:30Z</time>
      </trkpt>
      <trkpt lat="44.6576" lon="-1.17425">
        <ele>19.36</ele>
        <time>2021-07-01T19:29:31Z</time>
      </trkpt>
      <trkpt lat="44.6576" lon="-1.17425">
        <ele>19.36</ele>
        <time>2021-07-01T19:29:38Z</time>
      </trkpt>
      <trkpt lat="44.65757" lon="-1.17428">
        <ele>19.36</ele>
        <time>2021-07-01T19:29:39Z</time>
      </trkpt>
      <trkpt lat="44.6576" lon="-1.17425">
        <ele>19.36</ele>
        <time>2021-07-01T19:29:40Z</time>
      </trkpt>
      <trkpt lat="44.65759" lon="-1.17424">
        <ele>19.36</ele>
        <time>2021-07-01T19:29:41Z</time>
      </trkpt>
      <trkpt lat="44.65757" lon="-1.17422">
        <ele>19.36</ele>
        <time>2021-07-01T19:29:42Z</time>
      </trkpt>
      <trkpt lat="44.65755" lon="-1.1742">
        <ele>19.36</ele>
        <time>2021-07-01T19:29:43Z</time>
      </trkpt>
      <trkpt lat="44.65753" lon="-1.17417">
        <ele>19.36</ele>
        <time>2021-07-01T19:29:44Z</time>
      </trkpt>
      <trkpt lat="44.6575" lon="-1.17415">
        <ele>19.36</ele>
        <time>2021-07-01T19:29:45Z</time>
      </trkpt>
      <trkpt lat="44.65747" lon="-1.17411">
        <ele>19.36</ele>
        <time>2021-07-01T19:29:46Z</time>
      </trkpt>
      <trkpt lat="44.65697" lon="-1.1736">
        <ele>17.92</ele>
        <time>2021-07-01T19:29:59Z</time>
      </trkpt>
      <trkpt lat="44.65689" lon="-1.17348">
        <ele>17.44</ele>
        <time>2021-07-01T19:30:06Z</time>
      </trkpt>
      <trkpt lat="44.6569" lon="-1.17344">
        <ele>17.44</ele>
        <time>2021-07-01T19:30:07Z</time>
      </trkpt>
      <trkpt lat="44.65696" lon="-1.1733">
        <ele>17.44</ele>
        <time>2021-07-01T19:30:15Z</time>
      </trkpt>
      <trkpt lat="44.65713" lon="-1.17288">
        <ele>18.88</ele>
        <time>2021-07-01T19:30:24Z</time>
      </trkpt>
      <trkpt lat="44.65717" lon="-1.17284">
        <ele>18.88</ele>
        <time>2021-07-01T19:30:25Z</time>
      </trkpt>
      <trkpt lat="44.65727" lon="-1.17273">
        <ele>19.84</ele>
        <time>2021-07-01T19:30:28Z</time>
      </trkpt>
      <trkpt lat="44.6573" lon="-1.17269">
        <ele>19.84</ele>
        <time>2021-07-01T19:30:29Z</time>
      </trkpt>
      <trkpt lat="44.65772" lon="-1.17197">
        <ele>19.36</ele>
        <time>2021-07-01T19:30:44Z</time>
      </trkpt>
      <trkpt lat="44.658" lon="-1.17133">
        <ele>21.77</ele>
        <time>2021-07-01T19:30:58Z</time>
      </trkpt>
      <trkpt lat="44.65807" lon="-1.17114">
        <ele>22.73</ele>
        <time>2021-07-01T19:31:11Z</time>
      </trkpt>
      <trkpt lat="44.65807" lon="-1.17114">
        <ele>22.73</ele>
        <time>2021-07-01T19:31:27Z</time>
      </trkpt>
      <trkpt lat="44.658" lon="-1.17109">
        <ele>22.73</ele>
        <time>2021-07-01T19:31:28Z</time>
      </trkpt>
      <trkpt lat="44.658" lon="-1.17109">
        <ele>22.73</ele>
        <time>2021-07-01T19:31:29Z</time>
      </trkpt>
      <trkpt lat="44.65747" lon="-1.17135">
        <ele>22.25</ele>
        <time>2021-07-01T19:31:43Z</time>
      </trkpt>
      <trkpt lat="44.65687" lon="-1.17155">
        <ele>21.77</ele>
        <time>2021-07-01T19:32:00Z</time>
      </trkpt>
      <trkpt lat="44.65681" lon="-1.17158">
        <ele>21.77</ele>
        <time>2021-07-01T19:32:03Z</time>
      </trkpt>
      <trkpt lat="44.65677" lon="-1.17152">
        <ele>21.29</ele>
        <time>2021-07-01T19:32:04Z</time>
      </trkpt>
      <trkpt lat="44.65677" lon="-1.17148">
        <ele>21.77</ele>
        <time>2021-07-01T19:32:05Z</time>
      </trkpt>
      <trkpt lat="44.65677" lon="-1.17145">
        <ele>21.77</ele>
        <time>2021-07-01T19:32:06Z</time>
      </trkpt>
      <trkpt lat="44.65677" lon="-1.1714">
        <ele>21.77</ele>
        <time>2021-07-01T19:32:07Z</time>
      </trkpt>
      <trkpt lat="44.65679" lon="-1.17076">
        <ele>18.88</ele>
        <time>2021-07-01T19:32:18Z</time>
      </trkpt>
      <trkpt lat="44.65681" lon="-1.17025">
        <ele>15.52</ele>
        <time>2021-07-01T19:32:30Z</time>
      </trkpt>
      <trkpt lat="44.65685" lon="-1.16954">
        <ele>18.4</ele>
        <time>2021-07-01T19:32:45Z</time>
      </trkpt>
    </trkseg>
  </trk>
</gpx>